Time;durP1;ratioP1;P1;durP2;ratioP2;P2;SDS_P1;SDS_P2;PMS_P1;PMS_P2;Temp;Humidity;BMP_temperature;BMP_pressure;BME280_temperature;BME280_humidity;BME280_pressure;Samples;Min_cycle;Max_cycle;Signal;HPM_P1;HPM_P2
2022/04/28 00:00:54;;;;;;;;;;;;;;;12.24;43.25;102310.88;4425119;32;19973;-70
2022/04/28 00:03:20;;;;;;;;;;;;;;;11.99;43.92;102311.00;4422418;32;20001;-70
2022/04/28 00:05:46;;;;;;;;;;;;;;;12.03;43.82;102306.94;4425077;32;19945;-70
2022/04/28 00:08:12;;;;;;;;;;;;;;;12.03;43.90;102306.16;4424472;32;20012;-70
2022/04/28 00:10:38;;;;;;;;;;;;;;;12.25;43.48;102316.12;4424794;32;19995;-70
2022/04/28 00:13:05;;;;;;;;;;;;;;;12.10;43.92;102312.53;4425209;32;19994;-70
2022/04/28 00:15:30;;;;;;;;;;;;;;;12.08;43.89;102312.16;4424139;32;19953;-70
2022/04/28 00:17:56;;;;;;;;;;;;;;;11.90;44.27;102310.63;4424188;32;20472;-70
2022/04/28 00:20:22;;;;;;;;;;;;;;;11.95;44.25;102310.22;4424981;32;20110;-70
2022/04/28 00:22:47;;;;;;;;;;;;;;;11.79;44.70;102309.88;4424085;32;19975;-70
2022/04/28 00:25:13;;;;;;;;;;;;;;;12.34;43.35;102308.00;4424570;32;20414;-70
2022/04/28 00:27:39;;;;;;;;;;;;;;;12.48;42.97;102309.91;4424759;32;20006;-70
2022/04/28 00:30:05;;;;;;;;;;;;;;;12.50;42.90;102308.28;4424536;32;20303;-70
2022/04/28 00:32:31;;;;;;;;;;;;;;;12.53;42.72;102307.47;4422983;32;20300;-70
2022/04/28 00:34:57;;;;;;;;;;;;;;;12.47;42.88;102303.47;4424667;32;19989;-70
2022/04/28 00:37:23;;;;;;;;;;;;;;;12.45;43.16;102307.94;4426130;32;19993;-70
2022/04/28 00:39:50;;;;;;;;;;;;;;;12.45;43.09;102300.25;4424609;32;20014;-70
2022/04/28 00:42:16;;;;;;;;;;;;;;;12.54;42.79;102302.59;4424627;32;20662;-70
2022/04/28 00:44:42;;;;;;;;;;;;;;;12.44;43.11;102303.47;4424299;32;20037;-70
2022/04/28 00:47:08;;;;;;;;;;;;;;;12.28;43.50;102306.81;4425570;32;20038;-70
2022/04/28 00:52:19;;;;;;;;;;;;;;;12.37;43.48;102304.34;4424921;32;20004;-70
2022/04/28 00:54:45;;;;;;;;;;;;;;;12.40;43.24;102299.88;4424177;32;19953;-70
2022/04/28 00:57:11;;;;;;;;;;;;;;;12.24;43.39;102294.72;4425388;32;20341;-70
2022/04/28 00:59:39;;;;;;;;;;;;;;;11.97;44.24;102293.69;4423669;32;20029;-70
2022/04/28 01:02:05;;;;;;;;;;;;;;;11.99;44.44;102292.06;4425511;32;20010;-70
2022/04/28 01:04:31;;;;;;;;;;;;;;;12.29;43.64;102290.66;4409642;32;20000;-70
2022/04/28 01:06:56;;;;;;;;;;;;;;;12.41;43.36;102285.34;4423729;32;20001;-70
2022/04/28 01:09:22;;;;;;;;;;;;;;;11.95;44.39;102288.47;4423234;32;20319;-70
2022/04/28 01:11:48;;;;;;;;;;;;;;;11.93;44.46;102278.78;4423261;32;19973;-70
2022/04/28 01:14:13;;;;;;;;;;;;;;;11.98;44.37;102278.34;4424110;32;20232;-70
2022/04/28 01:16:39;;;;;;;;;;;;;;;11.94;44.51;102272.72;4425830;32;19997;-70
2022/04/28 01:19:05;;;;;;;;;;;;;;;12.33;43.62;102274.53;4424797;32;19953;-70
2022/04/28 01:21:31;;;;;;;;;;;;;;;12.36;43.69;102280.13;4423496;32;20327;-70
2022/04/28 01:24:00;;;;;;;;;;;;;;;12.31;43.81;102282.59;4422958;32;19961;-70
2022/04/28 01:26:27;;;;;;;;;;;;;;;12.40;43.53;102283.75;4424239;32;19954;-70
2022/04/28 01:28:52;;;;;;;;;;;;;;;12.43;43.53;102284.94;4424695;32;20337;-70
2022/04/28 01:31:18;;;;;;;;;;;;;;;12.33;43.80;102272.50;4424853;32;20036;-70
2022/04/28 01:33:44;;;;;;;;;;;;;;;12.26;44.09;102274.56;4422804;32;19956;-70
2022/04/28 01:36:10;;;;;;;;;;;;;;;12.28;44.15;102278.59;4425922;32;19972;-70
2022/04/28 01:38:35;;;;;;;;;;;;;;;12.52;43.69;102271.94;4423972;32;20008;-70
2022/04/28 01:41:02;;;;;;;;;;;;;;;12.51;43.55;102287.28;4424750;32;20003;-70
2022/04/28 01:43:27;;;;;;;;;;;;;;;12.34;44.02;102279.75;4424647;32;20301;-71
2022/04/28 01:45:53;;;;;;;;;;;;;;;12.34;44.18;102293.06;4424377;32;19957;-70
2022/04/28 01:48:18;;;;;;;;;;;;;;;12.21;44.29;102278.63;4424171;32;20042;-70
2022/04/28 01:54:57;;;;;;;;;;;;;;;12.30;44.13;102286.66;4424586;32;19968;-70
2022/04/28 01:56:15;;;;;;;;;;;;;;;12.24;44.16;102289.09;4425020;32;19953;-70
2022/04/28 01:58:41;;;;;;;;;;;;;;;12.24;44.33;102283.44;4425363;32;20029;-70
2022/04/28 02:01:07;;;;;;;;;;;;;;;12.27;44.40;102295.94;4424360;32;20674;-70
2022/04/28 02:03:33;;;;;;;;;;;;;;;12.37;44.14;102295.88;4424678;32;19957;-70
2022/04/28 02:06:00;;;;;;;;;;;;;;;12.31;44.25;102302.34;4426465;32;19972;-70
2022/04/28 02:08:28;;;;;;;;;;;;;;;12.37;44.26;102300.72;4428157;32;20035;-70
2022/04/28 02:10:53;;;;;;;;;;;;;;;12.20;44.53;102299.59;4425468;32;20311;-70
2022/04/28 02:13:19;;;;;;;;;;;;;;;12.32;44.40;102292.66;4426688;32;20644;-70
2022/04/28 02:15:45;;;;;;;;;;;;;;;12.31;44.22;102302.34;4426812;32;20044;-70
2022/04/28 02:18:11;;;;;;;;;;;;;;;12.30;44.57;102298.72;4425549;32;19996;-70
2022/04/28 02:20:37;;;;;;;;;;;;;;;12.36;44.33;102305.53;4426055;32;19985;-70
2022/04/28 02:23:02;;;;;;;;;;;;;;;12.31;44.51;102317.28;4424694;32;20004;-70
2022/04/28 02:25:28;;;;;;;;;;;;;;;12.33;44.50;102316.88;4426201;32;19949;-70
2022/04/28 02:27:54;;;;;;;;;;;;;;;12.36;44.68;102316.84;4426246;32;20330;-70
2022/04/28 02:30:19;;;;;;;;;;;;;;;12.18;44.78;102316.12;4427263;32;19997;-70
2022/04/28 02:33:18;;;;;;;;;;;;;;;12.31;44.62;102308.81;4427000;32;19992;-70
2022/04/28 02:35:30;;;;;;;;;;;;;;;12.40;44.39;102316.81;4414220;32;20235;-70
2022/04/28 02:37:56;;;;;;;;;;;;;;;12.40;44.52;102316.81;4426213;32;19946;-70
2022/04/28 02:40:21;;;;;;;;;;;;;;;12.01;45.50;102319.88;4424440;32;20001;-70
2022/04/28 02:42:47;;;;;;;;;;;;;;;11.90;45.76;102314.28;4427612;32;20843;-70
2022/04/28 02:45:12;;;;;;;;;;;;;;;11.83;45.62;102305.03;4426990;32;19980;-70
2022/04/28 02:47:38;;;;;;;;;;;;;;;11.90;45.54;102311.44;4425703;32;20417;-70
2022/04/28 02:50:05;;;;;;;;;;;;;;;11.66;46.13;102305.91;4426486;32;20007;-70
2022/04/28 02:52:31;;;;;;;;;;;;;;;11.79;45.88;102304.25;4424560;32;20032;-70
2022/04/28 02:54:57;;;;;;;;;;;;;;;11.78;45.99;102302.62;4424163;32;19997;-69
2022/04/28 02:57:23;;;;;;;;;;;;;;;11.70;46.19;102303.88;4428417;32;20590;-70
2022/04/28 02:59:48;;;;;;;;;;;;;;;12.03;45.46;102314.63;4425503;32;20328;-69
2022/04/28 03:02:14;;;;;;;;;;;;;;;12.12;45.17;102317.00;4423997;32;20012;-70
2022/04/28 03:04:39;;;;;;;;;;;;;;;11.81;45.90;102307.44;4425938;32;20039;-70
2022/04/28 03:12:37;;;;;;;;;;;;;;;11.75;46.27;102314.72;4426651;32;19989;-70
2022/04/28 03:15:04;;;;;;;;;;;;;;;11.73;45.94;102314.34;4426527;32;19996;-70
2022/04/28 03:17:30;;;;;;;;;;;;;;;11.80;46.16;102317.13;4425677;32;19953;-70
2022/04/28 03:19:56;;;;;;;;;;;;;;;11.83;45.92;102316.31;4427090;32;19994;-70
2022/04/28 03:22:23;;;;;;;;;;;;;;;11.99;45.70;102319.47;4425598;32;20416;-71
2022/04/28 03:24:48;;;;;;;;;;;;;;;11.92;45.68;102317.50;4426580;32;20016;-70
2022/04/28 03:27:15;;;;;;;;;;;;;;;11.80;45.99;102320.75;4427300;32;20021;-70
2022/04/28 03:29:41;;;;;;;;;;;;;;;12.15;45.28;102319.00;4426444;32;19981;-70
2022/04/28 03:32:10;;;;;;;;;;;;;;;12.36;44.58;102318.88;4424910;32;20261;-70
2022/04/28 03:34:36;;;;;;;;;;;;;;;11.90;45.82;102319.91;4424576;32;21378;-70
2022/04/28 03:37:02;;;;;;;;;;;;;;;11.71;46.26;102317.56;4425816;32;20028;-70
2022/04/28 03:39:30;;;;;;;;;;;;;;;12.17;45.46;102320.19;4425785;32;19941;-70
2022/04/28 03:41:55;;;;;;;;;;;;;;;11.93;45.73;102323.91;4425745;32;20413;-70
2022/04/28 03:44:21;;;;;;;;;;;;;;;11.85;45.88;102319.53;4423833;32;20389;-70
2022/04/28 03:46:47;;;;;;;;;;;;;;;12.03;45.66;102312.59;4426153;32;19992;-69
2022/04/28 03:49:12;;;;;;;;;;;;;;;11.84;46.16;102309.44;4425967;32;20048;-69
2022/04/28 03:51:39;;;;;;;;;;;;;;;12.02;45.63;102313.00;4425606;32;20007;-70
2022/04/28 03:54:04;;;;;;;;;;;;;;;11.68;46.29;102318.37;4424863;32;19953;-70
2022/04/28 03:56:31;;;;;;;;;;;;;;;12.04;45.53;102325.50;4425769;32;19961;-70
2022/04/28 03:58:58;;;;;;;;;;;;;;;12.20;45.25;102316.53;4424970;32;20342;-69
2022/04/28 04:01:24;;;;;;;;;;;;;;;12.16;45.35;102318.59;4426570;32;19991;-69
2022/04/28 04:03:50;;;;;;;;;;;;;;;12.04;45.62;102325.50;4424859;32;20391;-70
2022/04/28 04:06:15;;;;;;;;;;;;;;;12.20;45.26;102327.81;4427390;32;20011;-70
2022/04/28 04:08:41;;;;;;;;;;;;;;;12.16;45.21;102321.41;4426568;32;20387;-70
2022/04/28 04:11:07;;;;;;;;;;;;;;;12.01;45.54;102314.22;4410923;32;19961;-70
2022/04/28 04:13:33;;;;;;;;;;;;;;;12.06;45.45;102323.06;4426251;32;20375;-70
2022/04/28 04:15:59;;;;;;;;;;;;;;;11.79;46.00;102316.31;4426253;32;19961;-70
2022/04/28 04:18:24;;;;;;;;;;;;;;;11.65;46.36;102322.03;4424645;32;20355;-70
2022/04/28 04:20:50;;;;;;;;;;;;;;;11.77;46.10;102317.94;4424742;32;19994;-70
2022/04/28 04:23:16;;;;;;;;;;;;;;;11.73;46.31;102320.78;4422720;32;20378;-70
2022/04/28 04:25:43;;;;;;;;;;;;;;;11.73;46.41;102320.78;4425252;32;19992;-70
2022/04/28 04:28:09;;;;;;;;;;;;;;;11.79;46.33;102321.19;4423635;32;20111;-69
2022/04/28 04:33:20;;;;;;;;;;;;;;;12.22;45.36;102319.75;4424317;32;20303;-69
2022/04/28 04:35:46;;;;;;;;;;;;;;;12.23;45.14;102324.19;4412162;32;19967;-69
2022/04/28 04:38:12;;;;;;;;;;;;;;;12.20;45.32;102327.00;4425247;32;20044;-69
2022/04/28 04:40:38;;;;;;;;;;;;;;;12.30;44.98;102331.81;4425856;32;19960;-69
2022/04/28 04:43:05;;;;;;;;;;;;;;;12.23;45.11;102337.47;4426024;32;19954;-69
2022/04/28 04:45:31;;;;;;;;;;;;;;;12.06;45.52;102339.97;4425077;32;19964;-69
2022/04/28 04:47:57;;;;;;;;;;;;;;;12.20;45.07;102347.59;4425089;32;20447;-69
2022/04/28 04:50:22;;;;;;;;;;;;;;;12.20;45.12;102343.94;4424227;32;20027;-69
2022/04/28 04:52:48;;;;;;;;;;;;;;;12.15;45.16;102336.72;4424308;32;20385;-69
2022/04/28 04:55:13;;;;;;;;;;;;;;;12.00;45.71;102343.66;4423854;32;19967;-69
2022/04/28 04:57:39;;;;;;;;;;;;;;;11.99;45.64;102340.03;4425474;32;20307;-69
2022/04/28 05:00:06;;;;;;;;;;;;;;;11.94;45.96;102342.47;4425460;32;20338;-69
2022/04/28 05:02:32;;;;;;;;;;;;;;;11.85;46.28;102339.28;4425749;32;20006;-69
2022/04/28 05:04:58;;;;;;;;;;;;;;;11.87;46.12;102351.75;4423567;32;19965;-69
2022/04/28 05:07:28;;;;;;;;;;;;;;;11.89;46.13;102355.00;4423615;32;19972;-69
2022/04/28 05:09:53;;;;;;;;;;;;;;;11.84;46.05;102354.59;4426487;32;20348;-69
2022/04/28 05:12:19;;;;;;;;;;;;;;;11.88;46.25;102358.22;4425525;32;19965;-69
2022/04/28 05:14:45;;;;;;;;;;;;;;;11.99;45.84;102356.13;4425667;32;20339;-69
2022/04/28 05:17:11;;;;;;;;;;;;;;;11.96;45.92;102362.59;4424970;32;19964;-69
2022/04/28 05:19:36;;;;;;;;;;;;;;;11.98;45.85;102361.00;4424924;32;19973;-69
2022/04/28 05:22:03;;;;;;;;;;;;;;;11.98;45.78;102355.34;4425220;32;20003;-69
2022/04/28 05:24:28;;;;;;;;;;;;;;;12.03;45.59;102351.31;4424133;32;19966;-69
2022/04/28 05:26:54;;;;;;;;;;;;;;;12.28;44.94;102363.28;4423472;32;20391;-69
2022/04/28 05:29:19;;;;;;;;;;;;;;;12.04;45.40;102352.91;4424800;32;20296;-69
2022/04/28 05:31:45;;;;;;;;;;;;;;;12.02;45.89;102356.13;4424808;32;19980;-70
2022/04/28 05:34:10;;;;;;;;;;;;;;;12.11;45.48;102352.88;4422968;32;20001;-69
2022/04/28 05:36:37;;;;;;;;;;;;;;;12.20;45.16;102361.69;4424182;32;20351;-69
2022/04/28 05:39:03;;;;;;;;;;;;;;;12.23;45.40;102360.06;4425818;32;20020;-69
2022/04/28 05:41:28;;;;;;;;;;;;;;;12.17;45.36;102356.88;4429665;32;20450;-69
2022/04/28 05:46:39;;;;;;;;;;;;;;;12.23;44.91;102358.06;4428242;32;20365;-69
2022/04/28 05:49:06;;;;;;;;;;;;;;;12.31;44.90;102361.66;4429043;32;20553;-69
2022/04/28 05:51:32;;;;;;;;;;;;;;;12.32;45.04;102372.53;4428238;32;19993;-69
2022/04/28 05:53:58;;;;;;;;;;;;;;;12.32;45.01;102364.06;4426303;32;20000;-69
2022/04/28 05:56:23;;;;;;;;;;;;;;;12.38;44.89;102378.53;4427791;32;20345;-69
2022/04/28 05:58:49;;;;;;;;;;;;;;;12.58;44.48;102374.78;4428557;32;19973;-69
2022/04/28 06:01:14;;;;;;;;;;;;;;;12.46;44.65;102369.63;4426293;32;19961;-69
2022/04/28 06:03:41;;;;;;;;;;;;;;;12.52;44.32;102367.97;4425322;32;20007;-69
2022/04/28 06:06:07;;;;;;;;;;;;;;;12.62;44.42;102369.13;4429779;32;20016;-69
2022/04/28 06:08:33;;;;;;;;;;;;;;;12.48;44.89;102377.66;4427096;32;19969;-69
2022/04/28 06:11:01;;;;;;;;;;;;;;;12.48;44.85;102378.47;4426760;32;19962;-69
2022/04/28 06:13:26;;;;;;;;;;;;;;;12.53;44.69;102385.72;4425985;32;20005;-69
2022/04/28 06:15:52;;;;;;;;;;;;;;;12.60;44.39;102386.47;4428433;32;19988;-69
2022/04/28 06:18:18;;;;;;;;;;;;;;;12.59;44.47;102389.72;4426920;32;19976;-70
2022/04/28 06:20:44;;;;;;;;;;;;;;;12.61;44.39;102388.06;4412107;32;20016;-69
2022/04/28 06:23:11;;;;;;;;;;;;;;;12.64;44.55;102390.06;4425714;32;20397;-69
2022/04/28 06:25:37;;;;;;;;;;;;;;;12.66;44.74;102393.31;4426247;32;21306;-70
2022/04/28 06:28:03;;;;;;;;;;;;;;;12.75;44.22;102396.47;4424979;32;20090;-69
2022/04/28 06:30:29;;;;;;;;;;;;;;;12.85;43.96;102383.47;4426634;32;20303;-70
2022/04/28 06:32:55;;;;;;;;;;;;;;;12.80;44.23;102376.28;4425820;32;20379;-70
2022/04/28 06:35:21;;;;;;;;;;;;;;;12.81;44.41;102385.53;4421905;32;20419;-70
2022/04/28 06:37:46;;;;;;;;;;;;;;;12.95;44.16;102388.28;4420941;32;20001;-70
2022/04/28 06:40:12;;;;;;;;;;;;;;;13.06;43.90;102392.63;4421553;32;20023;-70
2022/04/28 06:42:42;;;;;;;;;;;;;;;13.14;43.57;102394.22;4418302;32;19983;-70
2022/04/28 06:45:09;;;;;;;;;;;;;;;13.30;43.14;102391.63;4423215;32;19975;-70
2022/04/28 06:47:35;;;;;;;;;;;;;;;13.32;43.25;102391.22;4421585;32;20037;-70
2022/04/28 06:50:08;;;;;;;;;;;;;;;13.28;43.47;102394.06;4423859;32;19997;-70
2022/04/28 06:52:34;;;;;;;;;;;;;;;13.33;43.35;102396.47;4421678;32;20008;-70
2022/04/28 06:55:00;;;;;;;;;;;;;;;13.37;43.48;102388.72;4424203;32;19957;-70
2022/04/28 06:57:25;;;;;;;;;;;;;;;13.33;43.59;102393.63;4422921;32;20027;-70
2022/04/28 06:59:51;;;;;;;;;;;;;;;13.27;43.88;102402.97;4418050;32;19972;-69
2022/04/28 07:02:17;;;;;;;;;;;;;;;13.62;43.53;102411.09;4421793;32;19980;-69
2022/04/28 07:04:43;;;;;;;;;;;;;;;13.44;43.24;102391.50;4420924;32;20310;-71
2022/04/28 07:07:08;;;;;;;;;;;;;;;13.59;43.45;102404.28;4422769;32;20097;-71
2022/04/28 07:09:34;;;;;;;;;;;;;;;13.82;42.88;102410.13;4419679;32;20578;-70
2022/04/28 07:12:00;;;;;;;;;;;;;;;13.85;42.54;102409.28;4414360;32;20317;-70
2022/04/28 07:14:25;;;;;;;;;;;;;;;13.76;42.77;102414.62;4420964;32;20039;-70
2022/04/28 07:16:51;;;;;;;;;;;;;;;13.70;43.05;102426.81;4419129;32;20001;-70
2022/04/28 07:19:17;;;;;;;;;;;;;;;13.50;43.56;102415.28;4419548;32;20057;-70
2022/04/28 07:21:42;;;;;;;;;;;;;;;13.63;43.63;102410.69;4416917;32;20050;-70
2022/04/28 07:24:08;;;;;;;;;;;;;;;13.81;43.32;102416.97;4417295;32;20052;-70
2022/04/28 07:26:34;;;;;;;;;;;;;;;13.80;43.67;102421.03;4415588;32;20000;-70
2022/04/28 07:28:59;;;;;;;;;;;;;;;13.80;43.47;102409.72;4418919;32;20013;-70
2022/04/28 07:31:25;;;;;;;;;;;;;;;13.85;43.16;102412.09;4420329;32;20039;-70
2022/04/28 07:33:50;;;;;;;;;;;;;;;13.77;43.14;102427.53;4417905;32;20541;-70
2022/04/28 07:36:16;;;;;;;;;;;;;;;13.86;43.10;102419.34;4403726;32;19993;-70
2022/04/28 07:38:42;;;;;;;;;;;;;;;13.43;44.13;102423.03;4419246;32;19997;-70
2022/04/28 07:41:07;;;;;;;;;;;;;;;13.79;43.55;102429.94;4423820;32;19980;-70
2022/04/28 07:43:33;;;;;;;;;;;;;;;13.96;43.26;102420.44;4421301;32;19972;-70
2022/04/28 07:45:59;;;;;;;;;;;;;;;14.06;43.02;102422.38;4408966;32;20457;-70
2022/04/28 07:48:24;;;;;;;;;;;;;;;14.09;43.08;102427.97;4406038;32;19980;-69
2022/04/28 07:50:50;;;;;;;;;;;;;;;14.14;42.62;102432.38;4418066;32;20011;-70
2022/04/28 07:53:16;;;;;;;;;;;;;;;13.97;42.87;102431.34;4417149;32;19971;-70
2022/04/28 07:55:42;;;;;;;;;;;;;;;14.14;42.45;102425.94;4418570;32;19993;-70
2022/04/28 07:58:07;;;;;;;;;;;;;;;14.25;41.93;102432.28;4419900;32;19984;-69
2022/04/28 08:00:33;;;;;;;;;;;;;;;14.43;41.67;102432.88;4415525;32;20346;-70
2022/04/28 08:02:59;;;;;;;;;;;;;;;14.12;42.11;102425.53;4417684;32;20029;-70
2022/04/28 08:05:26;;;;;;;;;;;;;;;14.31;41.85;102422.09;4417271;32;20031;-70
2022/04/28 08:07:52;;;;;;;;;;;;;;;14.06;42.21;102431.66;4420628;32;20398;-70
2022/04/28 08:10:18;;;;;;;;;;;;;;;14.55;41.60;102435.94;4419455;32;20217;-70
2022/04/28 08:12:44;;;;;;;;;;;;;;;14.72;41.09;102445.41;4416052;32;20009;-70
2022/04/28 08:15:10;;;;;;;;;;;;;;;14.71;40.97;102441.78;4417347;32;20032;-70
2022/04/28 08:17:36;;;;;;;;;;;;;;;15.05;40.25;102455.88;4418937;32;20368;-70
2022/04/28 08:20:02;;;;;;;;;;;;;;;15.08;40.22;102461.50;4420804;32;20042;-70
2022/04/28 08:22:27;;;;;;;;;;;;;;;15.13;39.85;102455.31;4419810;32;20650;-70
2022/04/28 08:24:53;;;;;;;;;;;;;;;15.04;39.67;102460.72;4420302;32;19964;-70
2022/04/28 08:27:24;;;;;;;;;;;;;;;14.93;40.05;102459.28;4419002;32;20008;-71
2022/04/28 08:29:51;;;;;;;;;;;;;;;14.97;39.85;102463.69;4422916;32;21003;-71
2022/04/28 08:32:17;;;;;;;;;;;;;;;15.17;39.80;102461.75;4421366;32;20004;-70
2022/04/28 08:34:42;;;;;;;;;;;;;;;15.37;39.52;102468.34;4421118;32;20378;-71
2022/04/28 08:37:09;;;;;;;;;;;;;;;15.46;39.29;102471.44;4420202;32;19965;-71
2022/04/28 08:39:35;;;;;;;;;;;;;;;15.73;38.70;102469.34;4420863;32;20224;-70
2022/04/28 08:42:01;;;;;;;;;;;;;;;15.81;38.37;102476.50;4418707;32;20009;-71
2022/04/28 08:44:27;;;;;;;;;;;;;;;15.28;39.50;102472.94;4422920;32;20050;-71
2022/04/28 08:46:53;;;;;;;;;;;;;;;15.39;39.08;102482.91;4410718;32;20009;-71
2022/04/28 08:49:23;;;;;;;;;;;;;;;15.65;38.08;102479.22;4422266;32;19994;-72
2022/04/28 08:51:57;;;;;;;;;;;;;;;15.64;38.53;102488.16;4419348;32;20493;-71
2022/04/28 08:54:25;;;;;;;;;;;;;;;15.64;38.54;102471.13;4419323;32;20268;-71
2022/04/28 08:56:53;;;;;;;;;;;;;;;15.76;37.95;102479.03;4420743;32;20397;-71
2022/04/28 08:59:19;;;;;;;;;;;;;;;15.56;38.15;102476.12;4415662;32;20471;-71
2022/04/28 09:01:44;;;;;;;;;;;;;;;15.87;37.70;102480.44;4417657;32;19960;-71
2022/04/28 09:04:10;;;;;;;;;;;;;;;15.99;37.33;102479.81;4417589;32;20055;-70
2022/04/28 09:06:36;;;;;;;;;;;;;;;15.88;37.44;102479.22;4419908;32;19993;-71
2022/04/28 09:09:04;;;;;;;;;;;;;;;15.95;37.66;102476.25;4418696;32;20382;-71
2022/04/28 09:11:32;;;;;;;;;;;;;;;15.84;37.74;102477.69;4420513;32;20339;-71
2022/04/28 09:16:33;;;;;;;;;;;;;;;16.10;37.49;102490.19;3941649;32;15841324;-71
2022/04/28 09:18:59;;;;;;;;;;;;;;;16.10;37.49;102490.19;4423410;32;19985;-71
2022/04/28 09:21:24;;;;;;;;;;;;;;;15.74;38.05;102490.81;4412539;32;19985;-71
2022/04/28 09:23:51;;;;;;;;;;;;;;;15.85;37.60;102494.28;4426026;32;20392;-71
2022/04/28 09:26:17;;;;;;;;;;;;;;;15.87;37.38;102496.69;4421530;32;20013;-71
2022/04/28 09:28:43;;;;;;;;;;;;;;;15.52;37.75;102508.63;4419765;32;19976;-71
2022/04/28 09:31:09;;;;;;;;;;;;;;;15.86;37.11;102500.75;4419249;32;20072;-71
2022/04/28 09:33:36;;;;;;;;;;;;;;;15.72;37.66;102498.97;4418659;32;19989;-71
2022/04/28 09:36:03;;;;;;;;;;;;;;;15.52;37.89;102511.47;4425072;32;20391;-71
2022/04/28 09:38:28;;;;;;;;;;;;;;;15.70;37.68;102509.97;4421448;32;20282;-71
2022/04/28 09:43:40;;;;;;;;;;;;;;;15.31;38.76;102503.28;4419394;32;20001;-70
2022/04/28 09:46:08;;;;;;;;;;;;;;;15.41;38.79;102503.12;4420290;32;20008;-70
2022/04/28 09:48:36;;;;;;;;;;;;;;;15.38;38.75;102512.53;4420761;32;20426;-70
2022/04/28 09:51:06;;;;;;;;;;;;;;;15.38;38.63;102515.38;4417096;32;19981;-71
2022/04/28 09:53:35;;;;;;;;;;;;;;;15.29;38.67;102517.09;4421070;32;20005;-70
2022/04/28 09:56:02;;;;;;;;;;;;;;;15.46;38.54;102501.84;4419417;32;20244;-70
2022/04/28 09:58:29;;;;;;;;;;;;;;;15.04;39.13;102511.00;4421929;32;20014;-70
2022/04/28 10:01:00;;;;;;;;;;;;;;;15.18;39.12;102502.25;4420958;32;20044;-71
2022/04/28 10:03:27;;;;;;;;;;;;;;;15.47;38.72;102503.47;4421742;32;20398;-71
2022/04/28 10:05:53;;;;;;;;;;;;;;;15.61;38.21;102494.69;4422375;32;19988;-71
2022/04/28 10:08:20;;;;;;;;;;;;;;;15.79;37.89;102489.53;4421274;32;20014;-70
2022/04/28 10:10:46;;;;;;;;;;;;;;;16.41;36.86;102489.53;4420495;32;20343;-71
2022/04/28 10:13:13;;;;;;;;;;;;;;;16.46;36.86;102502.47;4421067;32;20434;-71
2022/04/28 10:15:38;;;;;;;;;;;;;;;16.29;37.03;102506.47;4421922;32;20308;-71
2022/04/28 10:18:07;;;;;;;;;;;;;;;16.41;36.58;102512.28;4421381;32;20015;-72
2022/04/28 10:20:37;;;;;;;;;;;;;;;16.07;37.49;102505.25;4423513;32;20408;-71
2022/04/28 10:23:05;;;;;;;;;;;;;;;16.23;37.01;102503.28;4421599;32;21056;-72
2022/04/28 10:34:17;;;;;;;;;;;;;;;16.81;36.32;102488.31;4410224;32;19997;-71
2022/04/28 10:36:52;;;;;;;;;;;;;;;16.84;36.03;102487.44;4410100;32;19958;-72
2022/04/28 10:39:31;;;;;;;;;;;;;;;17.04;35.76;102488.22;4402098;32;20008;-71
2022/04/28 10:41:57;;;;;;;;;;;;;;;16.93;35.96;102496.16;4411782;32;20426;-71
2022/04/28 10:44:28;;;;;;;;;;;;;;;16.98;35.99;102495.66;4406392;32;20002;-71
2022/04/28 10:46:56;;;;;;;;;;;;;;;16.74;36.47;102485.62;4404171;32;19965;-71
2022/04/28 10:49:25;;;;;;;;;;;;;;;16.14;37.34;102491.69;4399890;32;20311;-71
2022/04/28 10:51:56;;;;;;;;;;;;;;;16.52;37.11;102497.87;4409137;32;19968;-71
2022/04/28 10:54:23;;;;;;;;;;;;;;;16.83;36.70;102499.25;4407360;32;19964;-71
2022/04/28 11:04:49;;;;;;;;;;;;;;;17.22;36.38;102499.19;3949028;32;15726638;-71
2022/04/28 11:07:16;;;;;;;;;;;;;;;17.22;36.38;102499.19;4436803;32;19961;-71
2022/04/28 11:09:42;;;;;;;;;;;;;;;16.55;36.99;102503.50;4436680;32;20016;-71
2022/04/28 11:14:45;;;;;;;;;;;;;;;16.27;38.01;102497.56;3942357;32;15724379;-71
2022/04/28 11:17:12;;;;;;;;;;;;;;;16.27;38.01;102497.56;4428056;32;19976;-71
2022/04/28 11:19:38;;;;;;;;;;;;;;;15.92;38.26;102502.66;4427021;32;20000;-71
2022/04/28 11:22:03;;;;;;;;;;;;;;;16.07;38.35;102505.25;4424805;32;20201;-71
2022/04/28 11:24:29;;;;;;;;;;;;;;;16.18;38.14;102497.31;4431609;32;20445;-71
2022/04/28 11:26:58;;;;;;;;;;;;;;;16.23;37.73;102499.69;4427220;32;19996;-71
2022/04/28 11:29:23;;;;;;;;;;;;;;;16.15;37.67;102499.00;4433178;32;20374;-70
2022/04/28 11:31:50;;;;;;;;;;;;;;;15.99;38.13;102501.75;4432460;32;19968;-70
2022/04/28 11:34:17;;;;;;;;;;;;;;;15.84;38.36;102498.34;4431183;32;20437;-71
2022/04/28 11:36:43;;;;;;;;;;;;;;;15.95;38.47;102490.44;4430087;32;20382;-71
2022/04/28 11:39:09;;;;;;;;;;;;;;;15.82;38.64;102494.34;4430974;32;20034;-70
2022/04/28 11:41:38;;;;;;;;;;;;;;;15.63;39.11;102497.91;4429494;32;20654;-71
2022/04/28 11:44:07;;;;;;;;;;;;;;;15.58;39.43;102501.25;4431972;32;19984;-70
2022/04/28 11:46:34;;;;;;;;;;;;;;;15.69;39.25;102501.88;4429457;32;20057;-70
2022/04/28 11:49:00;;;;;;;;;;;;;;;15.92;38.91;102499.03;4430250;32;19961;-71
2022/04/28 11:51:25;;;;;;;;;;;;;;;15.97;38.81;102498.53;4428433;32;20459;-71
2022/04/28 11:53:53;;;;;;;;;;;;;;;16.10;38.66;102504.41;4429981;32;20363;-71
2022/04/28 11:56:20;;;;;;;;;;;;;;;16.21;38.41;102502.13;4429609;32;21133;-71
2022/04/28 11:58:48;;;;;;;;;;;;;;;16.45;38.02;102503.72;4430071;32;19973;-70
2022/04/28 12:01:15;;;;;;;;;;;;;;;16.37;38.02;102507.91;4430551;32;19972;-70
2022/04/28 12:03:47;;;;;;;;;;;;;;;16.39;37.99;102496.91;4427808;32;20519;-72
2022/04/28 12:06:14;;;;;;;;;;;;;;;16.63;37.83;102512.69;4430066;32;20402;-71
2022/04/28 12:08:40;;;;;;;;;;;;;;;15.71;39.23;102503.03;4428693;32;20130;-71
2022/04/28 12:14:23;;;;;;;;;;;;;;;16.11;38.71;102506.81;4433028;32;20712;-70
2022/04/28 12:19:27;;;;;;;;;;;;;;;16.02;38.80;102507.34;4431132;32;20012;-70
2022/04/28 12:22:00;;;;;;;;;;;;;;;16.00;38.62;102497.66;4430632;32;19952;-70
2022/04/28 12:24:30;;;;;;;;;;;;;;;16.09;38.60;102492.22;4427896;32;20014;-70
2022/04/28 12:26:55;;;;;;;;;;;;;;;16.45;38.02;102498.84;4419434;32;20325;-70
2022/04/28 12:29:21;;;;;;;;;;;;;;;16.61;37.71;102493.22;4422755;32;19969;-71
2022/04/28 12:31:54;;;;;;;;;;;;;;;16.64;37.28;102488.69;4420591;32;21447;-70
2022/04/28 12:34:24;;;;;;;;;;;;;;;16.29;38.02;102489.41;4420372;32;20351;-70
2022/04/28 12:36:57;;;;;;;;;;;;;;;16.44;37.87;102491.53;4420674;32;20398;-71
2022/04/28 12:39:23;;;;;;;;;;;;;;;16.17;38.29;102482.31;4421151;32;20023;-72
2022/04/28 12:41:52;;;;;;;;;;;;;;;16.20;38.34;102498.47;4419151;32;19961;-71
2022/04/28 12:44:18;;;;;;;;;;;;;;;16.22;38.42;102493.19;4423996;32;20019;-71
2022/04/28 12:46:45;;;;;;;;;;;;;;;16.74;37.50;102479.12;4420950;32;19981;-70
2022/04/28 12:49:11;;;;;;;;;;;;;;;16.83;37.10;102468.78;4424524;32;20152;-72
2022/04/28 12:51:42;;;;;;;;;;;;;;;17.07;36.82;102481.66;4409149;32;20004;-71
2022/04/28 12:54:10;;;;;;;;;;;;;;;17.31;36.40;102473.75;4423402;32;19993;-71
2022/04/28 12:56:37;;;;;;;;;;;;;;;17.09;36.72;102473.44;4422782;32;19971;-71
2022/04/28 12:59:04;;;;;;;;;;;;;;;17.33;36.31;102471.25;4421136;32;21085;-71
2022/04/28 13:01:30;;;;;;;;;;;;;;;17.27;36.16;102473.81;4422350;32;19962;-71
2022/04/28 13:06:34;;;;;;;;;;;;;;;18.29;35.05;102482.56;3969228;31;15719082;-71
2022/04/28 13:09:01;;;;;;;;;;;;;;;18.29;35.05;102482.56;4447534;32;20020;-71
2022/04/28 13:11:28;;;;;;;;;;;;;;;18.01;34.93;102471.16;4446169;32;20080;-71
2022/04/28 13:13:54;;;;;;;;;;;;;;;17.84;35.12;102479.72;4441350;32;20027;-71
2022/04/28 13:16:20;;;;;;;;;;;;;;;17.59;35.86;102471.03;4447295;32;20345;-71
2022/04/28 13:18:46;;;;;;;;;;;;;;;17.56;35.92;102465.44;4447997;32;20442;-71
2022/04/28 13:21:12;;;;;;;;;;;;;;;17.99;35.19;102450.84;4449323;32;19990;-72